Terminal Aerodrome Forecast
Issued by NWS

Home | Current Version | Previous Version | Graphics & Text | Print | Product List | Glossary On
Versions: 1 2 3 4 5 6 7 8 9 10 11 12 13 14
000
FTUS41 KCLE 180500
TAFFDY
TAF
KFDY 180520Z 1806/1906 19005KT P6SM BKN120 OVC200
     FM180800 21006KT P6SM VCSH SCT040 OVC100
     FM181600 30010KT P6SM SCT100 BKN200=

USA.gov is the U.S. government's official web portal to all federal, state and local government web resources and services.